sensor_id;sensor_type;location;lat;lon;timestamp;P1;durP1;ratioP1;P2;durP2;ratioP2
75148;SDS011;63724;47.470;19.166;2023-04-06T00:02:02;8.07;;;4.50;;
75148;SDS011;63724;47.470;19.166;2023-04-06T00:05:04;8.15;;;4.63;;
75148;SDS011;63724;47.470;19.166;2023-04-06T00:08:08;7.88;;;4.38;;
75148;SDS011;63724;47.470;19.166;2023-04-06T00:11:10;8.07;;;4.35;;
75148;SDS011;63724;47.470;19.166;2023-04-06T00:14:12;7.55;;;4.47;;
75148;SDS011;63724;47.470;19.166;2023-04-06T00:17:15;7.70;;;4.73;;
75148;SDS011;63724;47.470;19.166;2023-04-06T00:20:18;7.88;;;4.30;;
75148;SDS011;63724;47.470;19.166;2023-04-06T00:23:20;5.75;;;4.15;;
75148;SDS011;63724;47.470;19.166;2023-04-06T00:26:23;8.98;;;5.32;;
75148;SDS011;63724;47.470;19.166;2023-04-06T00:29:25;9.02;;;5.60;;
75148;SDS011;63724;47.470;19.166;2023-04-06T00:32:27;10.80;;;5.03;;
75148;SDS011;63724;47.470;19.166;2023-04-06T00:35:30;10.65;;;5.35;;
75148;SDS011;63724;47.470;19.166;2023-04-06T00:38:33;14.00;;;6.05;;
75148;SDS011;63724;47.470;19.166;2023-04-06T00:41:35;11.30;;;5.63;;
75148;SDS011;63724;47.470;19.166;2023-04-06T00:44:37;14.35;;;6.72;;
75148;SDS011;63724;47.470;19.166;2023-04-06T00:47:40;9.13;;;5.70;;
75148;SDS011;63724;47.470;19.166;2023-04-06T00:50:43;12.63;;;6.25;;
75148;SDS011;63724;47.470;19.166;2023-04-06T00:53:45;14.63;;;6.38;;
75148;SDS011;63724;47.470;19.166;2023-04-06T00:56:48;13.48;;;6.03;;
75148;SDS011;63724;47.470;19.166;2023-04-06T00:59:51;12.10;;;6.45;;
75148;SDS011;63724;47.470;19.166;2023-04-06T01:02:54;10.97;;;5.93;;
75148;SDS011;63724;47.470;19.166;2023-04-06T01:06:03;11.38;;;5.53;;
75148;SDS011;63724;47.470;19.166;2023-04-06T01:09:11;11.40;;;5.88;;
75148;SDS011;63724;47.470;19.166;2023-04-06T01:12:13;10.50;;;5.22;;
75148;SDS011;63724;47.470;19.166;2023-04-06T01:15:16;12.07;;;6.25;;
75148;SDS011;63724;47.470;19.166;2023-04-06T01:18:27;11.93;;;5.53;;
75148;SDS011;63724;47.470;19.166;2023-04-06T01:21:41;12.63;;;6.20;;
75148;SDS011;63724;47.470;19.166;2023-04-06T01:25:07;12.20;;;5.95;;
75148;SDS011;63724;47.470;19.166;2023-04-06T01:28:39;10.85;;;6.32;;
75148;SDS011;63724;47.470;19.166;2023-04-06T01:31:54;15.45;;;6.25;;
75148;SDS011;63724;47.470;19.166;2023-04-06T01:34:57;11.87;;;6.37;;
75148;SDS011;63724;47.470;19.166;2023-04-06T01:37:59;15.75;;;6.63;;
75148;SDS011;63724;47.470;19.166;2023-04-06T01:41:06;12.00;;;6.13;;
75148;SDS011;63724;47.470;19.166;2023-04-06T01:44:20;14.75;;;6.68;;
75148;SDS011;63724;47.470;19.166;2023-04-06T01:47:29;11.93;;;6.15;;
75148;SDS011;63724;47.470;19.166;2023-04-06T01:50:32;9.77;;;5.77;;
75148;SDS011;63724;47.470;19.166;2023-04-06T01:53:34;11.90;;;6.50;;
75148;SDS011;63724;47.470;19.166;2023-04-06T01:56:40;15.25;;;6.90;;
75148;SDS011;63724;47.470;19.166;2023-04-06T01:59:57;11.77;;;6.20;;
75148;SDS011;63724;47.470;19.166;2023-04-06T02:03:14;13.43;;;6.38;;
75148;SDS011;63724;47.470;19.166;2023-04-06T02:06:18;16.57;;;7.10;;
75148;SDS011;63724;47.470;19.166;2023-04-06T02:09:20;16.73;;;8.00;;
75148;SDS011;63724;47.470;19.166;2023-04-06T02:12:23;11.02;;;7.50;;
75148;SDS011;63724;47.470;19.166;2023-04-06T02:15:26;13.00;;;6.50;;
75148;SDS011;63724;47.470;19.166;2023-04-06T02:18:30;13.90;;;8.15;;
75148;SDS011;63724;47.470;19.166;2023-04-06T02:21:33;12.63;;;6.90;;
75148;SDS011;63724;47.470;19.166;2023-04-06T02:24:35;13.32;;;7.25;;
75148;SDS011;63724;47.470;19.166;2023-04-06T02:27:38;14.93;;;7.82;;
75148;SDS011;63724;47.470;19.166;2023-04-06T02:30:40;13.57;;;8.18;;
75148;SDS011;63724;47.470;19.166;2023-04-06T02:33:43;18.00;;;8.45;;
75148;SDS011;63724;47.470;19.166;2023-04-06T02:36:47;13.27;;;7.37;;
75148;SDS011;63724;47.470;19.166;2023-04-06T02:39:49;14.38;;;7.10;;
75148;SDS011;63724;47.470;19.166;2023-04-06T02:42:52;14.25;;;7.57;;
75148;SDS011;63724;47.470;19.166;2023-04-06T02:46:02;13.23;;;7.05;;
75148;SDS011;63724;47.470;19.166;2023-04-06T02:49:08;13.65;;;7.68;;
75148;SDS011;63724;47.470;19.166;2023-04-06T02:52:10;18.10;;;8.27;;
75148;SDS011;63724;47.470;19.166;2023-04-06T02:55:13;14.75;;;8.00;;
75148;SDS011;63724;47.470;19.166;2023-04-06T02:58:16;15.75;;;8.82;;
75148;SDS011;63724;47.470;19.166;2023-04-06T03:01:22;16.88;;;8.18;;
75148;SDS011;63724;47.470;19.166;2023-04-06T03:04:31;14.98;;;8.13;;
75148;SDS011;63724;47.470;19.166;2023-04-06T03:07:35;15.47;;;7.50;;
75148;SDS011;63724;47.470;19.166;2023-04-06T03:10:38;13.95;;;8.23;;
75148;SDS011;63724;47.470;19.166;2023-04-06T03:13:40;15.82;;;7.70;;
75148;SDS011;63724;47.470;19.166;2023-04-06T03:16:44;19.85;;;7.95;;
75148;SDS011;63724;47.470;19.166;2023-04-06T03:19:51;12.73;;;7.90;;
75148;SDS011;63724;47.470;19.166;2023-04-06T03:22:54;14.63;;;7.70;;
75148;SDS011;63724;47.470;19.166;2023-04-06T03:26:01;15.57;;;7.63;;
75148;SDS011;63724;47.470;19.166;2023-04-06T03:29:04;14.30;;;7.70;;
75148;SDS011;63724;47.470;19.166;2023-04-06T03:32:07;11.82;;;7.63;;
75148;SDS011;63724;47.470;19.166;2023-04-06T03:35:15;17.60;;;7.35;;
75148;SDS011;63724;47.470;19.166;2023-04-06T03:38:17;14.83;;;7.23;;
75148;SDS011;63724;47.470;19.166;2023-04-06T03:41:20;10.88;;;6.70;;
75148;SDS011;63724;47.470;19.166;2023-04-06T03:44:48;17.15;;;7.50;;
75148;SDS011;63724;47.470;19.166;2023-04-06T03:47:52;15.00;;;7.13;;
75148;SDS011;63724;47.470;19.166;2023-04-06T03:50:54;13.70;;;6.40;;
75148;SDS011;63724;47.470;19.166;2023-04-06T03:53:57;13.60;;;6.87;;
75148;SDS011;63724;47.470;19.166;2023-04-06T03:56:59;12.38;;;7.00;;
75148;SDS011;63724;47.470;19.166;2023-04-06T04:00:02;11.68;;;6.47;;
75148;SDS011;63724;47.470;19.166;2023-04-06T04:03:13;14.02;;;6.72;;
75148;SDS011;63724;47.470;19.166;2023-04-06T04:06:16;14.38;;;7.07;;
75148;SDS011;63724;47.470;19.166;2023-04-06T04:09:19;13.73;;;6.67;;
75148;SDS011;63724;47.470;19.166;2023-04-06T04:12:21;14.70;;;6.40;;
75148;SDS011;63724;47.470;19.166;2023-04-06T04:15:24;12.05;;;6.80;;
75148;SDS011;63724;47.470;19.166;2023-04-06T04:18:26;14.02;;;6.82;;
75148;SDS011;63724;47.470;19.166;2023-04-06T04:21:29;12.80;;;6.63;;
75148;SDS011;63724;47.470;19.166;2023-04-06T04:24:35;10.27;;;6.33;;
75148;SDS011;63724;47.470;19.166;2023-04-06T04:27:38;13.98;;;7.03;;
75148;SDS011;63724;47.470;19.166;2023-04-06T04:30:40;20.65;;;8.68;;
75148;SDS011;63724;47.470;19.166;2023-04-06T04:33:45;17.20;;;8.10;;
75148;SDS011;63724;47.470;19.166;2023-04-06T04:36:53;13.70;;;7.47;;
75148;SDS011;63724;47.470;19.166;2023-04-06T04:40:06;14.47;;;7.60;;
75148;SDS011;63724;47.470;19.166;2023-04-06T04:43:19;17.80;;;8.70;;
75148;SDS011;63724;47.470;19.166;2023-04-06T04:46:22;16.98;;;8.45;;
75148;SDS011;63724;47.470;19.166;2023-04-06T04:49:26;19.63;;;7.75;;
75148;SDS011;63724;47.470;19.166;2023-04-06T04:52:29;20.88;;;7.90;;
75148;SDS011;63724;47.470;19.166;2023-04-06T04:55:44;15.07;;;8.23;;
75148;SDS011;63724;47.470;19.166;2023-04-06T04:58:49;19.27;;;8.98;;
75148;SDS011;63724;47.470;19.166;2023-04-06T05:01:51;22.02;;;8.88;;
75148;SDS011;63724;47.470;19.166;2023-04-06T05:05:03;17.35;;;9.02;;
75148;SDS011;63724;47.470;19.166;2023-04-06T05:08:06;18.85;;;8.90;;
75148;SDS011;63724;47.470;19.166;2023-04-06T05:11:16;18.67;;;9.27;;
75148;SDS011;63724;47.470;19.166;2023-04-06T05:14:26;23.55;;;10.25;;
75148;SDS011;63724;47.470;19.166;2023-04-06T05:17:30;22.30;;;9.88;;
75148;SDS011;63724;47.470;19.166;2023-04-06T05:20:34;21.65;;;8.98;;
75148;SDS011;63724;47.470;19.166;2023-04-06T05:23:37;18.92;;;8.95;;
75148;SDS011;63724;47.470;19.166;2023-04-06T05:26:40;16.03;;;8.67;;
75148;SDS011;63724;47.470;19.166;2023-04-06T05:29:51;17.25;;;7.65;;
75148;SDS011;63724;47.470;19.166;2023-04-06T05:32:58;15.15;;;7.30;;
75148;SDS011;63724;47.470;19.166;2023-04-06T05:36:08;13.18;;;6.90;;
75148;SDS011;63724;47.470;19.166;2023-04-06T05:39:14;14.80;;;6.88;;
75148;SDS011;63724;47.470;19.166;2023-04-06T05:42:36;15.20;;;6.70;;
75148;SDS011;63724;47.470;19.166;2023-04-06T05:45:46;12.52;;;7.30;;
75148;SDS011;63724;47.470;19.166;2023-04-06T05:48:48;20.15;;;8.43;;
75148;SDS011;63724;47.470;19.166;2023-04-06T05:51:54;17.88;;;8.43;;
75148;SDS011;63724;47.470;19.166;2023-04-06T05:54:57;22.08;;;8.98;;
75148;SDS011;63724;47.470;19.166;2023-04-06T05:58:00;19.80;;;9.17;;
75148;SDS011;63724;47.470;19.166;2023-04-06T06:01:02;17.67;;;9.55;;
75148;SDS011;63724;47.470;19.166;2023-04-06T06:04:18;20.92;;;9.25;;
75148;SDS011;63724;47.470;19.166;2023-04-06T06:07:23;24.67;;;10.10;;
75148;SDS011;63724;47.470;19.166;2023-04-06T06:10:32;16.00;;;8.35;;
75148;SDS011;63724;47.470;19.166;2023-04-06T06:13:34;16.13;;;8.77;;
75148;SDS011;63724;47.470;19.166;2023-04-06T06:16:37;20.35;;;9.18;;
75148;SDS011;63724;47.470;19.166;2023-04-06T06:19:41;17.10;;;7.85;;
75148;SDS011;63724;47.470;19.166;2023-04-06T06:22:44;15.23;;;7.63;;
75148;SDS011;63724;47.470;19.166;2023-04-06T06:25:51;17.08;;;6.88;;
75148;SDS011;63724;47.470;19.166;2023-04-06T06:28:56;13.73;;;6.97;;
75148;SDS011;63724;47.470;19.166;2023-04-06T06:31:59;11.52;;;6.78;;
75148;SDS011;63724;47.470;19.166;2023-04-06T06:35:02;15.13;;;7.05;;
75148;SDS011;63724;47.470;19.166;2023-04-06T06:38:05;14.43;;;6.60;;
75148;SDS011;63724;47.470;19.166;2023-04-06T06:41:08;15.65;;;6.40;;
75148;SDS011;63724;47.470;19.166;2023-04-06T06:44:11;12.83;;;6.67;;
75148;SDS011;63724;47.470;19.166;2023-04-06T06:47:14;14.73;;;6.72;;
75148;SDS011;63724;47.470;19.166;2023-04-06T06:50:18;13.18;;;7.63;;
75148;SDS011;63724;47.470;19.166;2023-04-06T06:53:21;12.30;;;6.85;;
75148;SDS011;63724;47.470;19.166;2023-04-06T06:56:23;12.93;;;6.63;;
75148;SDS011;63724;47.470;19.166;2023-04-06T06:59:27;16.33;;;7.80;;
75148;SDS011;63724;47.470;19.166;2023-04-06T07:02:31;14.65;;;6.97;;
75148;SDS011;63724;47.470;19.166;2023-04-06T07:05:33;14.13;;;7.07;;
75148;SDS011;63724;47.470;19.166;2023-04-06T07:08:35;12.13;;;6.72;;
75148;SDS011;63724;47.470;19.166;2023-04-06T07:11:38;11.50;;;6.07;;
75148;SDS011;63724;47.470;19.166;2023-04-06T07:14:40;14.30;;;6.73;;
75148;SDS011;63724;47.470;19.166;2023-04-06T07:17:43;11.70;;;6.70;;
75148;SDS011;63724;47.470;19.166;2023-04-06T07:20:47;12.80;;;6.95;;
75148;SDS011;63724;47.470;19.166;2023-04-06T07:23:51;13.45;;;6.20;;
75148;SDS011;63724;47.470;19.166;2023-04-06T07:26:53;12.23;;;6.47;;
75148;SDS011;63724;47.470;19.166;2023-04-06T07:29:56;10.23;;;6.00;;
75148;SDS011;63724;47.470;19.166;2023-04-06T07:32:59;12.98;;;6.13;;
75148;SDS011;63724;47.470;19.166;2023-04-06T07:36:03;13.35;;;6.00;;
75148;SDS011;63724;47.470;19.166;2023-04-06T07:39:06;13.75;;;6.20;;
75148;SDS011;63724;47.470;19.166;2023-04-06T07:42:10;9.88;;;5.60;;
75148;SDS011;63724;47.470;19.166;2023-04-06T07:45:12;9.83;;;5.60;;
75148;SDS011;63724;47.470;19.166;2023-04-06T07:48:15;9.48;;;5.32;;
75148;SDS011;63724;47.470;19.166;2023-04-06T07:51:18;10.68;;;5.20;;
75148;SDS011;63724;47.470;19.166;2023-04-06T07:54:21;13.70;;;5.38;;
75148;SDS011;63724;47.470;19.166;2023-04-06T07:57:24;12.45;;;5.30;;
75148;SDS011;63724;47.470;19.166;2023-04-06T08:00:27;14.67;;;5.40;;
75148;SDS011;63724;47.470;19.166;2023-04-06T08:03:29;13.57;;;5.70;;
75148;SDS011;63724;47.470;19.166;2023-04-06T08:06:32;11.27;;;4.93;;
75148;SDS011;63724;47.470;19.166;2023-04-06T08:09:34;10.30;;;5.45;;
75148;SDS011;63724;47.470;19.166;2023-04-06T08:12:37;11.60;;;5.57;;
75148;SDS011;63724;47.470;19.166;2023-04-06T08:15:39;12.73;;;5.50;;
75148;SDS011;63724;47.470;19.166;2023-04-06T08:18:42;13.65;;;5.90;;
75148;SDS011;63724;47.470;19.166;2023-04-06T08:21:44;11.40;;;5.97;;
75148;SDS011;63724;47.470;19.166;2023-04-06T08:24:47;13.38;;;5.72;;
75148;SDS011;63724;47.470;19.166;2023-04-06T08:27:50;12.38;;;5.45;;
75148;SDS011;63724;47.470;19.166;2023-04-06T08:30:52;11.93;;;5.87;;
75148;SDS011;63724;47.470;19.166;2023-04-06T08:33:55;10.13;;;5.05;;
75148;SDS011;63724;47.470;19.166;2023-04-06T08:36:57;8.13;;;5.65;;
75148;SDS011;63724;47.470;19.166;2023-04-06T08:39:59;10.63;;;5.40;;
75148;SDS011;63724;47.470;19.166;2023-04-06T08:43:02;10.25;;;5.68;;
75148;SDS011;63724;47.470;19.166;2023-04-06T08:46:05;8.40;;;5.53;;
75148;SDS011;63724;47.470;19.166;2023-04-06T08:49:08;11.13;;;5.28;;
75148;SDS011;63724;47.470;19.166;2023-04-06T08:52:10;10.30;;;5.80;;
75148;SDS011;63724;47.470;19.166;2023-04-06T08:55:13;10.90;;;5.45;;
75148;SDS011;63724;47.470;19.166;2023-04-06T08:58:16;11.60;;;6.20;;
75148;SDS011;63724;47.470;19.166;2023-04-06T09:01:41;7.73;;;5.20;;
75148;SDS011;63724;47.470;19.166;2023-04-06T09:04:48;10.15;;;4.88;;
75148;SDS011;63724;47.470;19.166;2023-04-06T09:07:52;9.00;;;5.43;;
75148;SDS011;63724;47.470;19.166;2023-04-06T09:10:54;8.43;;;4.95;;
75148;SDS011;63724;47.470;19.166;2023-04-06T09:13:57;8.75;;;4.72;;
75148;SDS011;63724;47.470;19.166;2023-04-06T09:16:59;8.93;;;4.80;;
75148;SDS011;63724;47.470;19.166;2023-04-06T09:20:02;10.35;;;4.65;;
75148;SDS011;63724;47.470;19.166;2023-04-06T09:23:05;9.38;;;4.60;;
75148;SDS011;63724;47.470;19.166;2023-04-06T09:26:12;9.80;;;4.50;;
75148;SDS011;63724;47.470;19.166;2023-04-06T09:29:22;7.78;;;4.90;;
75148;SDS011;63724;47.470;19.166;2023-04-06T09:32:26;6.47;;;4.27;;
75148;SDS011;63724;47.470;19.166;2023-04-06T09:35:28;8.18;;;4.30;;
75148;SDS011;63724;47.470;19.166;2023-04-06T09:38:33;9.70;;;4.95;;
75148;SDS011;63724;47.470;19.166;2023-04-06T09:41:35;9.05;;;4.57;;
75148;SDS011;63724;47.470;19.166;2023-04-06T09:44:38;11.63;;;4.78;;
75148;SDS011;63724;47.470;19.166;2023-04-06T09:47:44;9.43;;;4.40;;
75148;SDS011;63724;47.470;19.166;2023-04-06T09:50:49;9.07;;;5.35;;
75148;SDS011;63724;47.470;19.166;2023-04-06T09:53:52;8.02;;;4.90;;
75148;SDS011;63724;47.470;19.166;2023-04-06T10:00:05;9.00;;;5.10;;
75148;SDS011;63724;47.470;19.166;2023-04-06T10:03:36;8.40;;;5.00;;
75148;SDS011;63724;47.470;19.166;2023-04-06T10:06:59;9.32;;;4.97;;
75148;SDS011;63724;47.470;19.166;2023-04-06T10:10:02;10.93;;;4.95;;
75148;SDS011;63724;47.470;19.166;2023-04-06T10:13:05;9.48;;;5.05;;
75148;SDS011;63724;47.470;19.166;2023-04-06T10:16:07;10.20;;;5.20;;
75148;SDS011;63724;47.470;19.166;2023-04-06T10:19:12;6.77;;;4.77;;
75148;SDS011;63724;47.470;19.166;2023-04-06T10:22:21;11.90;;;5.47;;
75148;SDS011;63724;47.470;19.166;2023-04-06T10:25:30;10.02;;;5.50;;
75148;SDS011;63724;47.470;19.166;2023-04-06T10:28:34;9.45;;;4.95;;
75148;SDS011;63724;47.470;19.166;2023-04-06T10:31:41;9.63;;;4.95;;
75148;SDS011;63724;47.470;19.166;2023-04-06T10:34:45;10.87;;;5.30;;
75148;SDS011;63724;47.470;19.166;2023-04-06T10:38:00;12.77;;;5.40;;
75148;SDS011;63724;47.470;19.166;2023-04-06T10:41:04;12.75;;;4.93;;
75148;SDS011;63724;47.470;19.166;2023-04-06T10:44:08;10.93;;;5.18;;
75148;SDS011;63724;47.470;19.166;2023-04-06T10:47:18;8.52;;;4.65;;
75148;SDS011;63724;47.470;19.166;2023-04-06T10:50:21;9.50;;;5.27;;
75148;SDS011;63724;47.470;19.166;2023-04-06T10:53:25;8.80;;;5.22;;
75148;SDS011;63724;47.470;19.166;2023-04-06T10:56:28;10.35;;;5.22;;
75148;SDS011;63724;47.470;19.166;2023-04-06T10:59:32;10.75;;;5.10;;
75148;SDS011;63724;47.470;19.166;2023-04-06T11:02:35;9.80;;;5.20;;
75148;SDS011;63724;47.470;19.166;2023-04-06T11:05:47;7.27;;;5.03;;
75148;SDS011;63724;47.470;19.166;2023-04-06T11:08:50;9.75;;;4.25;;
75148;SDS011;63724;47.470;19.166;2023-04-06T11:11:53;9.13;;;5.07;;
75148;SDS011;63724;47.470;19.166;2023-04-06T11:15:00;9.73;;;5.05;;
75148;SDS011;63724;47.470;19.166;2023-04-06T11:18:06;8.10;;;4.75;;
75148;SDS011;63724;47.470;19.166;2023-04-06T11:21:08;7.40;;;4.63;;
75148;SDS011;63724;47.470;19.166;2023-04-06T11:27:13;10.60;;;4.97;;
75148;SDS011;63724;47.470;19.166;2023-04-06T11:30:17;14.23;;;4.78;;
75148;SDS011;63724;47.470;19.166;2023-04-06T11:33:20;7.45;;;4.32;;
75148;SDS011;63724;47.470;19.166;2023-04-06T11:36:26;6.33;;;4.37;;
75148;SDS011;63724;47.470;19.166;2023-04-06T11:39:29;7.50;;;4.22;;
75148;SDS011;63724;47.470;19.166;2023-04-06T11:42:34;7.50;;;4.22;;
75148;SDS011;63724;47.470;19.166;2023-04-06T11:45:41;13.75;;;4.60;;
75148;SDS011;63724;47.470;19.166;2023-04-06T11:48:45;5.68;;;3.92;;
75148;SDS011;63724;47.470;19.166;2023-04-06T11:51:48;12.60;;;4.77;;
75148;SDS011;63724;47.470;19.166;2023-04-06T11:54:51;9.80;;;3.95;;
75148;SDS011;63724;47.470;19.166;2023-04-06T11:57:55;7.05;;;4.38;;
75148;SDS011;63724;47.470;19.166;2023-04-06T12:01:02;10.27;;;4.40;;
75148;SDS011;63724;47.470;19.166;2023-04-06T12:04:05;7.10;;;4.18;;
75148;SDS011;63724;47.470;19.166;2023-04-06T12:07:08;7.70;;;4.60;;
75148;SDS011;63724;47.470;19.166;2023-04-06T12:10:10;9.50;;;4.82;;
75148;SDS011;63724;47.470;19.166;2023-04-06T12:13:13;9.25;;;4.40;;
75148;SDS011;63724;47.470;19.166;2023-04-06T12:16:15;9.00;;;4.80;;
75148;SDS011;63724;47.470;19.166;2023-04-06T12:19:18;7.65;;;4.30;;
75148;SDS011;63724;47.470;19.166;2023-04-06T12:22:20;7.97;;;4.03;;
75148;SDS011;63724;47.470;19.166;2023-04-06T12:25:23;7.63;;;3.42;;
75148;SDS011;63724;47.470;19.166;2023-04-06T12:28:25;11.77;;;4.75;;
75148;SDS011;63724;47.470;19.166;2023-04-06T12:31:28;6.07;;;4.22;;
75148;SDS011;63724;47.470;19.166;2023-04-06T12:34:31;10.73;;;4.45;;
75148;SDS011;63724;47.470;19.166;2023-04-06T12:37:33;5.70;;;3.77;;
75148;SDS011;63724;47.470;19.166;2023-04-06T12:40:37;8.65;;;4.13;;
75148;SDS011;63724;47.470;19.166;2023-04-06T12:43:44;8.77;;;4.07;;
75148;SDS011;63724;47.470;19.166;2023-04-06T12:46:46;8.15;;;3.95;;
75148;SDS011;63724;47.470;19.166;2023-04-06T12:49:49;6.07;;;3.78;;
75148;SDS011;63724;47.470;19.166;2023-04-06T12:52:52;6.03;;;3.80;;
75148;SDS011;63724;47.470;19.166;2023-04-06T12:55:54;9.32;;;4.53;;
75148;SDS011;63724;47.470;19.166;2023-04-06T12:58:57;4.97;;;3.65;;
75148;SDS011;63724;47.470;19.166;2023-04-06T13:01:59;18.48;;;4.05;;
75148;SDS011;63724;47.470;19.166;2023-04-06T13:05:02;9.82;;;3.90;;
75148;SDS011;63724;47.470;19.166;2023-04-06T13:08:04;7.40;;;3.90;;
75148;SDS011;63724;47.470;19.166;2023-04-06T13:11:07;8.25;;;4.10;;
75148;SDS011;63724;47.470;19.166;2023-04-06T13:14:12;6.50;;;3.90;;
75148;SDS011;63724;47.470;19.166;2023-04-06T13:17:14;8.07;;;3.95;;
75148;SDS011;63724;47.470;19.166;2023-04-06T13:20:18;5.22;;;3.78;;
75148;SDS011;63724;47.470;19.166;2023-04-06T13:23:21;9.13;;;3.57;;
75148;SDS011;63724;47.470;19.166;2023-04-06T13:26:24;8.18;;;4.28;;
75148;SDS011;63724;47.470;19.166;2023-04-06T13:29:27;9.43;;;3.83;;
75148;SDS011;63724;47.470;19.166;2023-04-06T13:32:29;7.80;;;4.03;;
75148;SDS011;63724;47.470;19.166;2023-04-06T13:35:32;6.78;;;3.80;;
75148;SDS011;63724;47.470;19.166;2023-04-06T13:38:34;8.73;;;4.43;;
75148;SDS011;63724;47.470;19.166;2023-04-06T13:41:37;9.32;;;4.10;;
75148;SDS011;63724;47.470;19.166;2023-04-06T13:44:39;9.93;;;3.95;;
75148;SDS011;63724;47.470;19.166;2023-04-06T13:47:42;10.02;;;4.50;;
75148;SDS011;63724;47.470;19.166;2023-04-06T13:50:44;6.63;;;3.80;;
75148;SDS011;63724;47.470;19.166;2023-04-06T13:53:50;7.00;;;4.17;;
75148;SDS011;63724;47.470;19.166;2023-04-06T13:56:54;7.57;;;4.20;;
75148;SDS011;63724;47.470;19.166;2023-04-06T13:59:57;5.38;;;3.42;;
75148;SDS011;63724;47.470;19.166;2023-04-06T14:02:59;6.32;;;3.42;;
75148;SDS011;63724;47.470;19.166;2023-04-06T14:06:09;6.93;;;3.60;;
75148;SDS011;63724;47.470;19.166;2023-04-06T14:09:31;5.90;;;3.83;;
75148;SDS011;63724;47.470;19.166;2023-04-06T14:12:33;7.43;;;3.42;;
75148;SDS011;63724;47.470;19.166;2023-04-06T14:15:35;8.80;;;4.13;;
75148;SDS011;63724;47.470;19.166;2023-04-06T14:18:38;8.23;;;3.65;;
75148;SDS011;63724;47.470;19.166;2023-04-06T14:21:40;7.28;;;4.43;;
75148;SDS011;63724;47.470;19.166;2023-04-06T14:24:43;6.60;;;3.77;;
75148;SDS011;63724;47.470;19.166;2023-04-06T14:27:45;7.60;;;4.22;;
75148;SDS011;63724;47.470;19.166;2023-04-06T14:30:48;9.70;;;3.38;;
75148;SDS011;63724;47.470;19.166;2023-04-06T14:33:50;6.15;;;3.45;;
75148;SDS011;63724;47.470;19.166;2023-04-06T14:36:52;7.68;;;3.80;;
75148;SDS011;63724;47.470;19.166;2023-04-06T14:39:55;6.73;;;3.43;;
75148;SDS011;63724;47.470;19.166;2023-04-06T14:42:57;6.43;;;3.72;;
75148;SDS011;63724;47.470;19.166;2023-04-06T14:46:00;7.22;;;3.97;;
75148;SDS011;63724;47.470;19.166;2023-04-06T14:49:03;6.55;;;4.20;;
75148;SDS011;63724;47.470;19.166;2023-04-06T14:52:06;8.55;;;3.47;;
75148;SDS011;63724;47.470;19.166;2023-04-06T14:55:08;6.97;;;4.23;;
75148;SDS011;63724;47.470;19.166;2023-04-06T14:58:10;6.10;;;3.72;;
75148;SDS011;63724;47.470;19.166;2023-04-06T15:01:13;6.85;;;4.40;;
75148;SDS011;63724;47.470;19.166;2023-04-06T15:04:15;8.50;;;3.72;;
75148;SDS011;63724;47.470;19.166;2023-04-06T15:07:18;5.63;;;3.67;;
75148;SDS011;63724;47.470;19.166;2023-04-06T15:10:20;7.63;;;4.00;;
75148;SDS011;63724;47.470;19.166;2023-04-06T15:13:22;5.93;;;3.58;;
75148;SDS011;63724;47.470;19.166;2023-04-06T15:16:25;8.07;;;3.55;;
75148;SDS011;63724;47.470;19.166;2023-04-06T15:19:27;7.65;;;3.38;;
75148;SDS011;63724;47.470;19.166;2023-04-06T15:22:29;7.10;;;3.35;;
75148;SDS011;63724;47.470;19.166;2023-04-06T15:25:32;6.00;;;3.47;;
75148;SDS011;63724;47.470;19.166;2023-04-06T15:28:34;8.32;;;3.50;;
75148;SDS011;63724;47.470;19.166;2023-04-06T15:31:36;7.45;;;3.72;;
75148;SDS011;63724;47.470;19.166;2023-04-06T15:34:40;6.13;;;3.45;;
75148;SDS011;63724;47.470;19.166;2023-04-06T15:37:43;5.28;;;3.50;;
75148;SDS011;63724;47.470;19.166;2023-04-06T15:40:46;6.37;;;3.40;;
75148;SDS011;63724;47.470;19.166;2023-04-06T15:43:50;5.35;;;3.65;;
75148;SDS011;63724;47.470;19.166;2023-04-06T15:46:52;5.78;;;3.75;;
75148;SDS011;63724;47.470;19.166;2023-04-06T15:49:55;9.90;;;4.18;;
75148;SDS011;63724;47.470;19.166;2023-04-06T15:52:57;6.80;;;3.25;;
75148;SDS011;63724;47.470;19.166;2023-04-06T15:56:00;6.97;;;3.63;;
75148;SDS011;63724;47.470;19.166;2023-04-06T15:59:03;7.07;;;4.38;;
75148;SDS011;63724;47.470;19.166;2023-04-06T16:02:05;6.85;;;4.30;;
75148;SDS011;63724;47.470;19.166;2023-04-06T16:05:08;10.40;;;4.50;;
75148;SDS011;63724;47.470;19.166;2023-04-06T16:08:10;10.43;;;4.38;;
75148;SDS011;63724;47.470;19.166;2023-04-06T16:11:13;6.40;;;4.27;;
75148;SDS011;63724;47.470;19.166;2023-04-06T16:14:16;10.93;;;3.65;;
75148;SDS011;63724;47.470;19.166;2023-04-06T16:17:18;9.10;;;4.60;;
75148;SDS011;63724;47.470;19.166;2023-04-06T16:20:20;7.78;;;4.30;;
75148;SDS011;63724;47.470;19.166;2023-04-06T16:23:22;6.45;;;4.45;;
75148;SDS011;63724;47.470;19.166;2023-04-06T16:26:25;7.30;;;4.23;;
75148;SDS011;63724;47.470;19.166;2023-04-06T16:29:28;8.00;;;4.70;;
75148;SDS011;63724;47.470;19.166;2023-04-06T16:32:32;8.82;;;5.18;;
75148;SDS011;63724;47.470;19.166;2023-04-06T16:35:35;7.38;;;4.50;;
75148;SDS011;63724;47.470;19.166;2023-04-06T16:38:37;8.50;;;4.55;;
75148;SDS011;63724;47.470;19.166;2023-04-06T16:41:39;8.20;;;4.93;;
75148;SDS011;63724;47.470;19.166;2023-04-06T16:44:42;9.20;;;4.78;;
75148;SDS011;63724;47.470;19.166;2023-04-06T16:47:44;7.80;;;4.45;;
75148;SDS011;63724;47.470;19.166;2023-04-06T16:50:48;8.13;;;4.63;;
75148;SDS011;63724;47.470;19.166;2023-04-06T16:53:50;8.75;;;4.78;;
75148;SDS011;63724;47.470;19.166;2023-04-06T16:56:53;9.33;;;4.80;;
75148;SDS011;63724;47.470;19.166;2023-04-06T16:59:55;10.00;;;5.32;;
75148;SDS011;63724;47.470;19.166;2023-04-06T17:02:58;9.43;;;5.50;;
75148;SDS011;63724;47.470;19.166;2023-04-06T17:06:00;10.43;;;5.55;;
75148;SDS011;63724;47.470;19.166;2023-04-06T17:09:03;10.93;;;5.43;;
75148;SDS011;63724;47.470;19.166;2023-04-06T17:12:05;8.23;;;4.93;;
75148;SDS011;63724;47.470;19.166;2023-04-06T17:15:08;6.85;;;4.78;;
75148;SDS011;63724;47.470;19.166;2023-04-06T17:18:10;10.52;;;5.82;;
75148;SDS011;63724;47.470;19.166;2023-04-06T17:21:13;8.10;;;5.53;;
75148;SDS011;63724;47.470;19.166;2023-04-06T17:24:15;8.75;;;5.60;;
75148;SDS011;63724;47.470;19.166;2023-04-06T17:27:17;9.20;;;6.20;;
75148;SDS011;63724;47.470;19.166;2023-04-06T17:30:23;10.60;;;6.00;;
75148;SDS011;63724;47.470;19.166;2023-04-06T17:33:26;9.30;;;6.68;;
75148;SDS011;63724;47.470;19.166;2023-04-06T17:36:29;12.60;;;6.47;;
75148;SDS011;63724;47.470;19.166;2023-04-06T17:39:33;13.43;;;6.88;;
75148;SDS011;63724;47.470;19.166;2023-04-06T17:42:35;11.30;;;6.07;;
75148;SDS011;63724;47.470;19.166;2023-04-06T17:45:38;10.85;;;6.60;;
75148;SDS011;63724;47.470;19.166;2023-04-06T17:48:40;10.02;;;6.30;;
75148;SDS011;63724;47.470;19.166;2023-04-06T17:51:43;9.95;;;6.25;;
75148;SDS011;63724;47.470;19.166;2023-04-06T17:54:46;11.07;;;6.57;;
75148;SDS011;63724;47.470;19.166;2023-04-06T17:57:48;7.70;;;5.70;;
75148;SDS011;63724;47.470;19.166;2023-04-06T18:00:51;10.00;;;6.43;;
75148;SDS011;63724;47.470;19.166;2023-04-06T18:03:53;10.35;;;6.40;;
75148;SDS011;63724;47.470;19.166;2023-04-06T18:06:56;8.70;;;6.13;;
75148;SDS011;63724;47.470;19.166;2023-04-06T18:10:00;10.70;;;7.00;;